sensor_id;sensor_type;location;lat;lon;timestamp;P1;durP1;ratioP1;P2;durP2;ratioP2
61407;SDS011;47274;43.054;25.146;2022-07-22T00:00:13;10.98;;;4.65;;
61407;SDS011;47274;43.054;25.146;2022-07-22T00:02:39;8.68;;;4.68;;
61407;SDS011;47274;43.054;25.146;2022-07-22T00:05:06;10.80;;;5.00;;
61407;SDS011;47274;43.054;25.146;2022-07-22T00:07:32;9.70;;;4.75;;
61407;SDS011;47274;43.054;25.146;2022-07-22T00:09:58;13.20;;;5.00;;
61407;SDS011;47274;43.054;25.146;2022-07-22T00:12:24;10.32;;;5.00;;
61407;SDS011;47274;43.054;25.146;2022-07-22T00:14:50;11.55;;;5.10;;
61407;SDS011;47274;43.054;25.146;2022-07-22T00:17:16;13.65;;;5.32;;
61407;SDS011;47274;43.054;25.146;2022-07-22T00:19:42;13.07;;;4.95;;
61407;SDS011;47274;43.054;25.146;2022-07-22T00:22:08;14.00;;;4.82;;
61407;SDS011;47274;43.054;25.146;2022-07-22T00:24:33;11.93;;;5.07;;
61407;SDS011;47274;43.054;25.146;2022-07-22T00:26:59;10.63;;;5.45;;
61407;SDS011;47274;43.054;25.146;2022-07-22T00:29:25;11.05;;;4.70;;
61407;SDS011;47274;43.054;25.146;2022-07-22T00:31:51;11.80;;;5.25;;
61407;SDS011;47274;43.054;25.146;2022-07-22T00:34:17;12.15;;;5.00;;
61407;SDS011;47274;43.054;25.146;2022-07-22T00:36:42;13.85;;;5.28;;
61407;SDS011;47274;43.054;25.146;2022-07-22T00:39:08;11.90;;;5.30;;
61407;SDS011;47274;43.054;25.146;2022-07-22T00:41:34;11.00;;;5.20;;
61407;SDS011;47274;43.054;25.146;2022-07-22T00:44:02;12.85;;;5.15;;
61407;SDS011;47274;43.054;25.146;2022-07-22T00:46:30;11.15;;;4.90;;
61407;SDS011;47274;43.054;25.146;2022-07-22T00:48:57;12.48;;;4.63;;
61407;SDS011;47274;43.054;25.146;2022-07-22T00:51:24;10.55;;;4.85;;
61407;SDS011;47274;43.054;25.146;2022-07-22T00:53:52;9.57;;;4.50;;
61407;SDS011;47274;43.054;25.146;2022-07-22T00:56:19;10.05;;;4.63;;
61407;SDS011;47274;43.054;25.146;2022-07-22T00:58:46;8.90;;;4.45;;
61407;SDS011;47274;43.054;25.146;2022-07-22T01:01:14;12.32;;;4.60;;
61407;SDS011;47274;43.054;25.146;2022-07-22T01:03:40;11.75;;;4.60;;
61407;SDS011;47274;43.054;25.146;2022-07-22T01:06:10;8.20;;;4.60;;
61407;SDS011;47274;43.054;25.146;2022-07-22T01:08:36;12.95;;;4.40;;
61407;SDS011;47274;43.054;25.146;2022-07-22T01:11:09;13.80;;;4.72;;
61407;SDS011;47274;43.054;25.146;2022-07-22T01:13:39;11.52;;;5.03;;
61407;SDS011;47274;43.054;25.146;2022-07-22T01:16:06;9.45;;;4.60;;
61407;SDS011;47274;43.054;25.146;2022-07-22T01:18:33;8.80;;;4.40;;
61407;SDS011;47274;43.054;25.146;2022-07-22T01:20:59;10.57;;;4.65;;
61407;SDS011;47274;43.054;25.146;2022-07-22T01:23:25;9.85;;;4.38;;
61407;SDS011;47274;43.054;25.146;2022-07-22T01:25:51;12.40;;;4.60;;
61407;SDS011;47274;43.054;25.146;2022-07-22T01:28:17;10.18;;;4.28;;
61407;SDS011;47274;43.054;25.146;2022-07-22T01:30:43;8.05;;;3.72;;
61407;SDS011;47274;43.054;25.146;2022-07-22T01:33:09;8.23;;;4.20;;
61407;SDS011;47274;43.054;25.146;2022-07-22T01:35:35;7.60;;;3.90;;
61407;SDS011;47274;43.054;25.146;2022-07-22T01:38:02;8.43;;;3.97;;
61407;SDS011;47274;43.054;25.146;2022-07-22T01:40:31;7.95;;;3.90;;
61407;SDS011;47274;43.054;25.146;2022-07-22T01:42:57;8.02;;;4.30;;
61407;SDS011;47274;43.054;25.146;2022-07-22T01:45:22;9.30;;;4.10;;
61407;SDS011;47274;43.054;25.146;2022-07-22T01:47:48;7.35;;;4.00;;
61407;SDS011;47274;43.054;25.146;2022-07-22T01:50:14;8.85;;;4.70;;
61407;SDS011;47274;43.054;25.146;2022-07-22T01:52:40;8.13;;;3.75;;
61407;SDS011;47274;43.054;25.146;2022-07-22T01:55:06;6.93;;;3.50;;
61407;SDS011;47274;43.054;25.146;2022-07-22T01:57:33;7.60;;;3.85;;
61407;SDS011;47274;43.054;25.146;2022-07-22T02:00:09;7.68;;;3.75;;
61407;SDS011;47274;43.054;25.146;2022-07-22T02:02:41;5.60;;;3.70;;
61407;SDS011;47274;43.054;25.146;2022-07-22T02:05:08;5.38;;;3.50;;
61407;SDS011;47274;43.054;25.146;2022-07-22T02:07:35;7.97;;;3.70;;
61407;SDS011;47274;43.054;25.146;2022-07-22T02:10:02;5.60;;;3.78;;
61407;SDS011;47274;43.054;25.146;2022-07-22T02:12:30;9.20;;;4.00;;
61407;SDS011;47274;43.054;25.146;2022-07-22T02:14:56;7.25;;;3.88;;
61407;SDS011;47274;43.054;25.146;2022-07-22T02:17:22;7.20;;;3.47;;
61407;SDS011;47274;43.054;25.146;2022-07-22T02:19:48;8.98;;;3.80;;
61407;SDS011;47274;43.054;25.146;2022-07-22T02:22:14;9.27;;;4.00;;
61407;SDS011;47274;43.054;25.146;2022-07-22T02:24:40;7.63;;;3.92;;
61407;SDS011;47274;43.054;25.146;2022-07-22T02:27:07;10.25;;;3.85;;
61407;SDS011;47274;43.054;25.146;2022-07-22T02:29:36;5.93;;;3.35;;
61407;SDS011;47274;43.054;25.146;2022-07-22T02:32:02;10.52;;;3.78;;
61407;SDS011;47274;43.054;25.146;2022-07-22T02:34:28;9.30;;;3.95;;
61407;SDS011;47274;43.054;25.146;2022-07-22T02:36:54;11.38;;;3.72;;
61407;SDS011;47274;43.054;25.146;2022-07-22T02:39:20;5.60;;;3.45;;
61407;SDS011;47274;43.054;25.146;2022-07-22T02:41:46;10.77;;;3.65;;
61407;SDS011;47274;43.054;25.146;2022-07-22T02:44:12;9.05;;;4.10;;
61407;SDS011;47274;43.054;25.146;2022-07-22T02:46:37;10.50;;;4.22;;
61407;SDS011;47274;43.054;25.146;2022-07-22T02:49:12;7.38;;;4.00;;
61407;SDS011;47274;43.054;25.146;2022-07-22T02:51:38;6.63;;;3.95;;
61407;SDS011;47274;43.054;25.146;2022-07-22T02:54:04;7.75;;;4.20;;
61407;SDS011;47274;43.054;25.146;2022-07-22T02:56:31;6.07;;;3.60;;
61407;SDS011;47274;43.054;25.146;2022-07-22T02:58:57;9.20;;;3.83;;
61407;SDS011;47274;43.054;25.146;2022-07-22T03:01:23;7.53;;;4.05;;
61407;SDS011;47274;43.054;25.146;2022-07-22T03:03:56;10.32;;;4.00;;
61407;SDS011;47274;43.054;25.146;2022-07-22T03:06:23;8.23;;;4.07;;
61407;SDS011;47274;43.054;25.146;2022-07-22T03:08:56;8.02;;;3.78;;
61407;SDS011;47274;43.054;25.146;2022-07-22T03:11:22;9.77;;;4.28;;
61407;SDS011;47274;43.054;25.146;2022-07-22T03:13:48;12.07;;;4.63;;
61407;SDS011;47274;43.054;25.146;2022-07-22T03:16:14;10.05;;;3.70;;
61407;SDS011;47274;43.054;25.146;2022-07-22T03:18:40;11.93;;;4.53;;
61407;SDS011;47274;43.054;25.146;2022-07-22T03:21:06;8.77;;;4.10;;
61407;SDS011;47274;43.054;25.146;2022-07-22T03:23:31;7.70;;;4.00;;
61407;SDS011;47274;43.054;25.146;2022-07-22T03:25:58;7.75;;;3.83;;
61407;SDS011;47274;43.054;25.146;2022-07-22T03:28:24;4.68;;;3.25;;
61407;SDS011;47274;43.054;25.146;2022-07-22T03:30:51;6.72;;;3.58;;
61407;SDS011;47274;43.054;25.146;2022-07-22T03:33:17;7.65;;;3.85;;
61407;SDS011;47274;43.054;25.146;2022-07-22T03:35:43;10.50;;;4.20;;
61407;SDS011;47274;43.054;25.146;2022-07-22T03:38:13;9.98;;;4.45;;
61407;SDS011;47274;43.054;25.146;2022-07-22T03:40:39;10.32;;;4.15;;
61407;SDS011;47274;43.054;25.146;2022-07-22T03:43:04;14.52;;;4.57;;
61407;SDS011;47274;43.054;25.146;2022-07-22T03:45:31;11.05;;;4.22;;
61407;SDS011;47274;43.054;25.146;2022-07-22T03:47:57;8.13;;;3.97;;
61407;SDS011;47274;43.054;25.146;2022-07-22T03:50:30;8.57;;;4.22;;
61407;SDS011;47274;43.054;25.146;2022-07-22T03:52:57;8.82;;;4.22;;
61407;SDS011;47274;43.054;25.146;2022-07-22T03:55:23;7.40;;;4.13;;
61407;SDS011;47274;43.054;25.146;2022-07-22T03:57:53;10.38;;;4.30;;
61407;SDS011;47274;43.054;25.146;2022-07-22T04:00:26;9.38;;;3.80;;
61407;SDS011;47274;43.054;25.146;2022-07-22T04:02:52;6.43;;;3.65;;
61407;SDS011;47274;43.054;25.146;2022-07-22T04:05:34;7.53;;;3.53;;
61407;SDS011;47274;43.054;25.146;2022-07-22T04:07:59;7.28;;;3.85;;
61407;SDS011;47274;43.054;25.146;2022-07-22T04:10:27;10.30;;;4.57;;
61407;SDS011;47274;43.054;25.146;2022-07-22T04:12:53;8.57;;;3.67;;
61407;SDS011;47274;43.054;25.146;2022-07-22T04:15:35;6.43;;;3.60;;
61407;SDS011;47274;43.054;25.146;2022-07-22T04:18:01;4.93;;;3.45;;
61407;SDS011;47274;43.054;25.146;2022-07-22T04:20:27;8.95;;;4.07;;
61407;SDS011;47274;43.054;25.146;2022-07-22T04:23:16;6.65;;;3.55;;
61407;SDS011;47274;43.054;25.146;2022-07-22T04:25:43;9.07;;;3.97;;
61407;SDS011;47274;43.054;25.146;2022-07-22T04:28:11;5.80;;;3.53;;
61407;SDS011;47274;43.054;25.146;2022-07-22T04:30:40;7.10;;;3.70;;
61407;SDS011;47274;43.054;25.146;2022-07-22T04:33:06;6.93;;;3.70;;
61407;SDS011;47274;43.054;25.146;2022-07-22T04:35:32;8.15;;;3.67;;
61407;SDS011;47274;43.054;25.146;2022-07-22T04:38:07;8.68;;;3.63;;
61407;SDS011;47274;43.054;25.146;2022-07-22T04:40:37;7.38;;;3.60;;
61407;SDS011;47274;43.054;25.146;2022-07-22T04:43:05;8.15;;;3.58;;
61407;SDS011;47274;43.054;25.146;2022-07-22T04:45:31;7.05;;;3.58;;
61407;SDS011;47274;43.054;25.146;2022-07-22T04:47:57;7.20;;;3.80;;
61407;SDS011;47274;43.054;25.146;2022-07-22T04:50:22;9.85;;;3.47;;
61407;SDS011;47274;43.054;25.146;2022-07-22T04:55:20;7.88;;;3.63;;
61407;SDS011;47274;43.054;25.146;2022-07-22T04:57:46;9.48;;;4.07;;
61407;SDS011;47274;43.054;25.146;2022-07-22T05:00:13;11.00;;;3.83;;
61407;SDS011;47274;43.054;25.146;2022-07-22T05:02:49;6.00;;;3.40;;
61407;SDS011;47274;43.054;25.146;2022-07-22T05:05:15;8.52;;;3.50;;
61407;SDS011;47274;43.054;25.146;2022-07-22T05:07:41;8.57;;;3.90;;
61407;SDS011;47274;43.054;25.146;2022-07-22T05:10:07;10.07;;;4.00;;
61407;SDS011;47274;43.054;25.146;2022-07-22T05:12:34;10.65;;;4.60;;
61407;SDS011;47274;43.054;25.146;2022-07-22T05:15:00;9.13;;;3.95;;
61407;SDS011;47274;43.054;25.146;2022-07-22T05:17:27;7.43;;;4.10;;
61407;SDS011;47274;43.054;25.146;2022-07-22T05:20:12;6.70;;;3.75;;
61407;SDS011;47274;43.054;25.146;2022-07-22T05:22:38;11.80;;;4.30;;
61407;SDS011;47274;43.054;25.146;2022-07-22T05:25:11;6.82;;;3.95;;
61407;SDS011;47274;43.054;25.146;2022-07-22T05:27:47;6.07;;;3.80;;
61407;SDS011;47274;43.054;25.146;2022-07-22T05:30:17;7.57;;;3.83;;
61407;SDS011;47274;43.054;25.146;2022-07-22T05:32:43;8.63;;;3.95;;
61407;SDS011;47274;43.054;25.146;2022-07-22T05:35:11;11.48;;;4.35;;
61407;SDS011;47274;43.054;25.146;2022-07-22T05:37:37;16.40;;;4.97;;
61407;SDS011;47274;43.054;25.146;2022-07-22T05:40:03;9.55;;;4.35;;
61407;SDS011;47274;43.054;25.146;2022-07-22T05:42:29;9.38;;;4.10;;
61407;SDS011;47274;43.054;25.146;2022-07-22T05:44:55;8.18;;;3.97;;
61407;SDS011;47274;43.054;25.146;2022-07-22T05:47:21;9.70;;;4.10;;
61407;SDS011;47274;43.054;25.146;2022-07-22T05:49:48;8.90;;;3.85;;
61407;SDS011;47274;43.054;25.146;2022-07-22T05:52:14;11.82;;;4.60;;
61407;SDS011;47274;43.054;25.146;2022-07-22T05:54:40;11.65;;;4.50;;
61407;SDS011;47274;43.054;25.146;2022-07-22T05:57:06;11.77;;;4.75;;
61407;SDS011;47274;43.054;25.146;2022-07-22T05:59:37;9.55;;;4.45;;
61407;SDS011;47274;43.054;25.146;2022-07-22T06:02:03;12.55;;;4.28;;
61407;SDS011;47274;43.054;25.146;2022-07-22T06:04:38;10.90;;;4.10;;
61407;SDS011;47274;43.054;25.146;2022-07-22T06:07:04;11.00;;;4.53;;
61407;SDS011;47274;43.054;25.146;2022-07-22T06:09:32;11.88;;;4.68;;
61407;SDS011;47274;43.054;25.146;2022-07-22T06:11:59;7.80;;;4.15;;
61407;SDS011;47274;43.054;25.146;2022-07-22T06:14:25;14.15;;;4.72;;
61407;SDS011;47274;43.054;25.146;2022-07-22T06:16:51;8.77;;;4.93;;
61407;SDS011;47274;43.054;25.146;2022-07-22T06:19:19;13.40;;;4.75;;
61407;SDS011;47274;43.054;25.146;2022-07-22T06:21:45;14.70;;;5.30;;
61407;SDS011;47274;43.054;25.146;2022-07-22T06:24:13;11.70;;;5.10;;
61407;SDS011;47274;43.054;25.146;2022-07-22T06:26:39;15.55;;;4.97;;
61407;SDS011;47274;43.054;25.146;2022-07-22T06:29:13;29.05;;;6.97;;
61407;SDS011;47274;43.054;25.146;2022-07-22T06:31:39;14.10;;;5.28;;
61407;SDS011;47274;43.054;25.146;2022-07-22T06:34:05;10.75;;;4.53;;
61407;SDS011;47274;43.054;25.146;2022-07-22T06:36:51;11.63;;;5.05;;
61407;SDS011;47274;43.054;25.146;2022-07-22T06:39:17;12.60;;;4.78;;
61407;SDS011;47274;43.054;25.146;2022-07-22T06:42:04;8.95;;;4.32;;
61407;SDS011;47274;43.054;25.146;2022-07-22T06:45:06;11.90;;;4.97;;
61407;SDS011;47274;43.054;25.146;2022-07-22T06:47:54;12.20;;;4.60;;
61407;SDS011;47274;43.054;25.146;2022-07-22T06:50:45;13.05;;;5.40;;
61407;SDS011;47274;43.054;25.146;2022-07-22T06:53:15;10.18;;;4.28;;
61407;SDS011;47274;43.054;25.146;2022-07-22T06:55:42;9.95;;;4.50;;
61407;SDS011;47274;43.054;25.146;2022-07-22T06:58:10;10.80;;;4.45;;
61407;SDS011;47274;43.054;25.146;2022-07-22T07:00:39;10.70;;;3.97;;
61407;SDS011;47274;43.054;25.146;2022-07-22T07:03:26;10.70;;;4.28;;
61407;SDS011;47274;43.054;25.146;2022-07-22T07:05:56;8.77;;;4.40;;
61407;SDS011;47274;43.054;25.146;2022-07-22T07:08:24;11.18;;;3.97;;
61407;SDS011;47274;43.054;25.146;2022-07-22T07:10:51;7.57;;;4.13;;
61407;SDS011;47274;43.054;25.146;2022-07-22T07:13:17;9.00;;;4.60;;
61407;SDS011;47274;43.054;25.146;2022-07-22T07:15:44;12.45;;;4.75;;
61407;SDS011;47274;43.054;25.146;2022-07-22T07:18:13;8.32;;;4.10;;
61407;SDS011;47274;43.054;25.146;2022-07-22T07:20:40;11.38;;;4.25;;
61407;SDS011;47274;43.054;25.146;2022-07-22T07:23:09;16.13;;;4.35;;
61407;SDS011;47274;43.054;25.146;2022-07-22T07:25:40;8.98;;;4.45;;
61407;SDS011;47274;43.054;25.146;2022-07-22T07:28:06;9.25;;;3.97;;
61407;SDS011;47274;43.054;25.146;2022-07-22T07:31:07;8.70;;;4.00;;
61407;SDS011;47274;43.054;25.146;2022-07-22T07:33:34;7.18;;;4.10;;
61407;SDS011;47274;43.054;25.146;2022-07-22T07:36:01;11.50;;;4.68;;
61407;SDS011;47274;43.054;25.146;2022-07-22T07:38:36;9.48;;;4.32;;
61407;SDS011;47274;43.054;25.146;2022-07-22T07:41:04;11.48;;;4.28;;
61407;SDS011;47274;43.054;25.146;2022-07-22T07:43:31;12.85;;;4.28;;
61407;SDS011;47274;43.054;25.146;2022-07-22T07:45:58;7.55;;;4.30;;
61407;SDS011;47274;43.054;25.146;2022-07-22T07:48:25;12.13;;;4.45;;
61407;SDS011;47274;43.054;25.146;2022-07-22T07:50:51;11.88;;;4.75;;
61407;SDS011;47274;43.054;25.146;2022-07-22T07:53:17;7.25;;;3.78;;
61407;SDS011;47274;43.054;25.146;2022-07-22T07:55:43;6.38;;;3.72;;
61407;SDS011;47274;43.054;25.146;2022-07-22T07:58:09;8.25;;;4.10;;
61407;SDS011;47274;43.054;25.146;2022-07-22T08:00:37;9.65;;;4.40;;
61407;SDS011;47274;43.054;25.146;2022-07-22T08:03:05;9.77;;;4.65;;
61407;SDS011;47274;43.054;25.146;2022-07-22T08:05:31;9.18;;;4.70;;
61407;SDS011;47274;43.054;25.146;2022-07-22T08:08:00;10.75;;;5.10;;
61407;SDS011;47274;43.054;25.146;2022-07-22T08:10:27;8.15;;;4.13;;
61407;SDS011;47274;43.054;25.146;2022-07-22T08:15:59;11.38;;;4.38;;
61407;SDS011;47274;43.054;25.146;2022-07-22T08:18:26;6.68;;;4.00;;
61407;SDS011;47274;43.054;25.146;2022-07-22T08:20:53;8.98;;;4.07;;
61407;SDS011;47274;43.054;25.146;2022-07-22T08:23:26;7.07;;;4.35;;
61407;SDS011;47274;43.054;25.146;2022-07-22T08:25:53;10.80;;;4.13;;
61407;SDS011;47274;43.054;25.146;2022-07-22T08:28:21;7.15;;;3.83;;
61407;SDS011;47274;43.054;25.146;2022-07-22T08:30:47;9.05;;;3.90;;
61407;SDS011;47274;43.054;25.146;2022-07-22T08:33:13;8.68;;;3.78;;
61407;SDS011;47274;43.054;25.146;2022-07-22T08:35:39;8.52;;;4.20;;
61407;SDS011;47274;43.054;25.146;2022-07-22T08:38:06;10.20;;;3.88;;
61407;SDS011;47274;43.054;25.146;2022-07-22T08:40:33;6.78;;;4.18;;
61407;SDS011;47274;43.054;25.146;2022-07-22T08:43:01;9.57;;;4.20;;
61407;SDS011;47274;43.054;25.146;2022-07-22T08:45:29;10.40;;;4.50;;
61407;SDS011;47274;43.054;25.146;2022-07-22T08:47:56;12.73;;;5.15;;
61407;SDS011;47274;43.054;25.146;2022-07-22T08:50:40;9.40;;;4.30;;
61407;SDS011;47274;43.054;25.146;2022-07-22T08:53:21;7.65;;;4.20;;
61407;SDS011;47274;43.054;25.146;2022-07-22T08:55:48;6.03;;;4.05;;
61407;SDS011;47274;43.054;25.146;2022-07-22T08:58:15;10.05;;;4.45;;
61407;SDS011;47274;43.054;25.146;2022-07-22T09:00:42;7.35;;;4.20;;
61407;SDS011;47274;43.054;25.146;2022-07-22T09:03:19;9.98;;;4.35;;
61407;SDS011;47274;43.054;25.146;2022-07-22T09:05:48;7.55;;;3.95;;
61407;SDS011;47274;43.054;25.146;2022-07-22T09:08:16;9.73;;;4.30;;
61407;SDS011;47274;43.054;25.146;2022-07-22T09:11:20;9.95;;;4.47;;
61407;SDS011;47274;43.054;25.146;2022-07-22T09:14:22;11.23;;;4.45;;
61407;SDS011;47274;43.054;25.146;2022-07-22T09:17:32;6.38;;;3.83;;
61407;SDS011;47274;43.054;25.146;2022-07-22T09:20:21;8.68;;;4.60;;
61407;SDS011;47274;43.054;25.146;2022-07-22T09:23:14;7.53;;;3.78;;
61407;SDS011;47274;43.054;25.146;2022-07-22T09:25:52;10.48;;;4.45;;
61407;SDS011;47274;43.054;25.146;2022-07-22T09:28:38;11.93;;;4.70;;
61407;SDS011;47274;43.054;25.146;2022-07-22T09:31:32;9.32;;;4.35;;
61407;SDS011;47274;43.054;25.146;2022-07-22T09:34:30;9.90;;;4.32;;
61407;SDS011;47274;43.054;25.146;2022-07-22T09:37:10;8.05;;;4.55;;
61407;SDS011;47274;43.054;25.146;2022-07-22T09:39:37;6.85;;;4.05;;
61407;SDS011;47274;43.054;25.146;2022-07-22T09:42:06;8.90;;;4.20;;
61407;SDS011;47274;43.054;25.146;2022-07-22T09:44:36;7.55;;;4.10;;
61407;SDS011;47274;43.054;25.146;2022-07-22T09:47:29;9.70;;;4.03;;
61407;SDS011;47274;43.054;25.146;2022-07-22T09:50:32;5.43;;;3.60;;
61407;SDS011;47274;43.054;25.146;2022-07-22T09:53:12;7.65;;;3.97;;
61407;SDS011;47274;43.054;25.146;2022-07-22T09:55:46;7.70;;;3.95;;
61407;SDS011;47274;43.054;25.146;2022-07-22T09:58:12;6.93;;;3.97;;
61407;SDS011;47274;43.054;25.146;2022-07-22T10:00:40;11.25;;;3.97;;
61407;SDS011;47274;43.054;25.146;2022-07-22T10:05:58;6.80;;;3.78;;
61407;SDS011;47274;43.054;25.146;2022-07-22T10:08:26;7.00;;;4.07;;
61407;SDS011;47274;43.054;25.146;2022-07-22T10:10:54;7.20;;;3.88;;
61407;SDS011;47274;43.054;25.146;2022-07-22T10:13:27;8.13;;;3.70;;
61407;SDS011;47274;43.054;25.146;2022-07-22T10:15:53;9.65;;;3.90;;
61407;SDS011;47274;43.054;25.146;2022-07-22T10:18:21;9.63;;;4.40;;
61407;SDS011;47274;43.054;25.146;2022-07-22T10:20:48;5.60;;;3.60;;
61407;SDS011;47274;43.054;25.146;2022-07-22T10:23:14;9.77;;;4.10;;
61407;SDS011;47274;43.054;25.146;2022-07-22T10:25:56;5.97;;;3.70;;
61407;SDS011;47274;43.054;25.146;2022-07-22T10:28:28;10.02;;;4.40;;
61407;SDS011;47274;43.054;25.146;2022-07-22T10:33:53;8.70;;;4.03;;
61407;SDS011;47274;43.054;25.146;2022-07-22T10:36:29;6.20;;;4.00;;
61407;SDS011;47274;43.054;25.146;2022-07-22T10:39:13;10.43;;;4.50;;
61407;SDS011;47274;43.054;25.146;2022-07-22T10:41:44;7.55;;;4.00;;
61407;SDS011;47274;43.054;25.146;2022-07-22T10:44:13;8.65;;;3.85;;
61407;SDS011;47274;43.054;25.146;2022-07-22T10:47:08;11.18;;;4.40;;
61407;SDS011;47274;43.054;25.146;2022-07-22T10:49:41;9.25;;;3.75;;
61407;SDS011;47274;43.054;25.146;2022-07-22T10:57:39;4.88;;;3.78;;
61407;SDS011;47274;43.054;25.146;2022-07-22T11:00:05;8.60;;;4.20;;
61407;SDS011;47274;43.054;25.146;2022-07-22T11:02:36;7.50;;;4.33;;
61407;SDS011;47274;43.054;25.146;2022-07-22T11:05:08;9.00;;;4.25;;
61407;SDS011;47274;43.054;25.146;2022-07-22T11:07:45;10.57;;;4.47;;
61407;SDS011;47274;43.054;25.146;2022-07-22T11:10:16;10.45;;;3.97;;
61407;SDS011;47274;43.054;25.146;2022-07-22T11:12:48;6.82;;;3.70;;
61407;SDS011;47274;43.054;25.146;2022-07-22T11:15:18;8.27;;;3.80;;
61407;SDS011;47274;43.054;25.146;2022-07-22T11:17:51;9.48;;;4.25;;
61407;SDS011;47274;43.054;25.146;2022-07-22T11:20:25;11.45;;;4.20;;
61407;SDS011;47274;43.054;25.146;2022-07-22T11:22:54;7.72;;;4.25;;
61407;SDS011;47274;43.054;25.146;2022-07-22T11:25:21;7.55;;;4.25;;
61407;SDS011;47274;43.054;25.146;2022-07-22T11:28:00;6.60;;;3.90;;
61407;SDS011;47274;43.054;25.146;2022-07-22T11:30:26;11.05;;;5.15;;
61407;SDS011;47274;43.054;25.146;2022-07-22T11:32:52;8.60;;;4.05;;
61407;SDS011;47274;43.054;25.146;2022-07-22T11:35:20;8.52;;;4.07;;
61407;SDS011;47274;43.054;25.146;2022-07-22T11:37:56;4.95;;;3.53;;
61407;SDS011;47274;43.054;25.146;2022-07-22T11:40:23;8.27;;;4.07;;
61407;SDS011;47274;43.054;25.146;2022-07-22T11:43:02;6.57;;;3.65;;
61407;SDS011;47274;43.054;25.146;2022-07-22T11:45:29;8.82;;;4.00;;
61407;SDS011;47274;43.054;25.146;2022-07-22T11:47:56;9.02;;;3.50;;
61407;SDS011;47274;43.054;25.146;2022-07-22T11:50:30;9.90;;;3.95;;
61407;SDS011;47274;43.054;25.146;2022-07-22T11:56:30;5.78;;;3.67;;
61407;SDS011;47274;43.054;25.146;2022-07-22T12:02:20;8.23;;;3.85;;
61407;SDS011;47274;43.054;25.146;2022-07-22T12:04:46;8.60;;;3.70;;
61407;SDS011;47274;43.054;25.146;2022-07-22T12:13:14;6.88;;;3.53;;
61407;SDS011;47274;43.054;25.146;2022-07-22T12:19:05;8.65;;;3.72;;
61407;SDS011;47274;43.054;25.146;2022-07-22T12:24:38;6.88;;;3.72;;
61407;SDS011;47274;43.054;25.146;2022-07-22T12:27:10;4.85;;;3.55;;
61407;SDS011;47274;43.054;25.146;2022-07-22T12:29:51;6.28;;;3.63;;
61407;SDS011;47274;43.054;25.146;2022-07-22T12:35:30;7.15;;;3.70;;
61407;SDS011;47274;43.054;25.146;2022-07-22T12:38:08;9.02;;;3.92;;
61407;SDS011;47274;43.054;25.146;2022-07-22T12:40:36;5.75;;;3.70;;
61407;SDS011;47274;43.054;25.146;2022-07-22T12:43:08;6.22;;;3.78;;
61407;SDS011;47274;43.054;25.146;2022-07-22T12:45:37;4.78;;;3.50;;
61407;SDS011;47274;43.054;25.146;2022-07-22T12:48:15;5.40;;;3.28;;
61407;SDS011;47274;43.054;25.146;2022-07-22T12:50:58;10.38;;;3.78;;
61407;SDS011;47274;43.054;25.146;2022-07-22T12:53:24;10.10;;;3.95;;
61407;SDS011;47274;43.054;25.146;2022-07-22T12:55:56;6.22;;;3.40;;
61407;SDS011;47274;43.054;25.146;2022-07-22T12:58:24;4.03;;;3.20;;
61407;SDS011;47274;43.054;25.146;2022-07-22T13:00:56;7.60;;;3.38;;
61407;SDS011;47274;43.054;25.146;2022-07-22T13:03:36;7.25;;;3.67;;
61407;SDS011;47274;43.054;25.146;2022-07-22T13:06:11;10.90;;;3.70;;
61407;SDS011;47274;43.054;25.146;2022-07-22T13:08:40;9.70;;;3.38;;
61407;SDS011;47274;43.054;25.146;2022-07-22T13:11:10;8.88;;;3.90;;
61407;SDS011;47274;43.054;25.146;2022-07-22T13:13:35;9.55;;;3.63;;
61407;SDS011;47274;43.054;25.146;2022-07-22T13:16:07;6.43;;;3.50;;
61407;SDS011;47274;43.054;25.146;2022-07-22T13:21:45;5.80;;;3.63;;
61407;SDS011;47274;43.054;25.146;2022-07-22T13:24:16;35.80;;;5.18;;
61407;SDS011;47274;43.054;25.146;2022-07-22T13:27:12;6.38;;;3.47;;
61407;SDS011;47274;43.054;25.146;2022-07-22T13:29:39;6.40;;;3.28;;
61407;SDS011;47274;43.054;25.146;2022-07-22T13:32:08;5.70;;;3.22;;
61407;SDS011;47274;43.054;25.146;2022-07-22T13:34:42;10.07;;;3.60;;
61407;SDS011;47274;43.054;25.146;2022-07-22T13:37:29;10.63;;;3.50;;
61407;SDS011;47274;43.054;25.146;2022-07-22T13:40:05;4.93;;;3.20;;
61407;SDS011;47274;43.054;25.146;2022-07-22T13:42:54;6.80;;;3.40;;
61407;SDS011;47274;43.054;25.146;2022-07-22T13:48:37;7.68;;;3.42;;
61407;SDS011;47274;43.054;25.146;2022-07-22T13:51:39;6.50;;;3.10;;
61407;SDS011;47274;43.054;25.146;2022-07-22T13:54:40;5.63;;;3.30;;
61407;SDS011;47274;43.054;25.146;2022-07-22T13:57:11;7.78;;;3.40;;
61407;SDS011;47274;43.054;25.146;2022-07-22T13:59:37;8.95;;;3.13;;
61407;SDS011;47274;43.054;25.146;2022-07-22T14:02:03;6.68;;;3.38;;
61407;SDS011;47274;43.054;25.146;2022-07-22T14:04:50;14.05;;;3.72;;
61407;SDS011;47274;43.054;25.146;2022-07-22T14:07:20;14.05;;;3.80;;
61407;SDS011;47274;43.054;25.146;2022-07-22T14:09:52;10.50;;;3.10;;
61407;SDS011;47274;43.054;25.146;2022-07-22T14:12:18;8.82;;;3.40;;
61407;SDS011;47274;43.054;25.146;2022-07-22T14:14:44;5.70;;;3.10;;
61407;SDS011;47274;43.054;25.146;2022-07-22T14:17:17;6.70;;;3.28;;
61407;SDS011;47274;43.054;25.146;2022-07-22T14:19:44;8.55;;;3.22;;
61407;SDS011;47274;43.054;25.146;2022-07-22T14:22:10;7.93;;;3.10;;
61407;SDS011;47274;43.054;25.146;2022-07-22T14:24:36;11.30;;;3.58;;
61407;SDS011;47274;43.054;25.146;2022-07-22T14:27:02;7.32;;;3.30;;
61407;SDS011;47274;43.054;25.146;2022-07-22T14:29:27;7.85;;;3.50;;
61407;SDS011;47274;43.054;25.146;2022-07-22T14:31:54;7.78;;;3.17;;
61407;SDS011;47274;43.054;25.146;2022-07-22T14:34:20;6.13;;;3.35;;
61407;SDS011;47274;43.054;25.146;2022-07-22T14:36:47;7.72;;;3.33;;
61407;SDS011;47274;43.054;25.146;2022-07-22T14:39:14;25.60;;;4.82;;
61407;SDS011;47274;43.054;25.146;2022-07-22T14:42:05;29.58;;;26.33;;
61407;SDS011;47274;43.054;25.146;2022-07-22T14:47:32;142.05;;;117.00;;
61407;SDS011;47274;43.054;25.146;2022-07-22T14:50:03;172.63;;;132.55;;
61407;SDS011;47274;43.054;25.146;2022-07-22T14:52:32;284.08;;;204.55;;
61407;SDS011;47274;43.054;25.146;2022-07-22T14:54:59;257.70;;;182.80;;
61407;SDS011;47274;43.054;25.146;2022-07-22T14:57:25;364.02;;;262.10;;
61407;SDS011;47274;43.054;25.146;2022-07-22T14:59:53;590.67;;;451.20;;
61407;SDS011;47274;43.054;25.146;2022-07-22T15:02:20;365.00;;;275.30;;
61407;SDS011;47274;43.054;25.146;2022-07-22T15:04:45;141.27;;;94.95;;
61407;SDS011;47274;43.054;25.146;2022-07-22T15:07:11;163.75;;;113.43;;
61407;SDS011;47274;43.054;25.146;2022-07-22T15:09:37;130.02;;;90.10;;
61407;SDS011;47274;43.054;25.146;2022-07-22T15:12:03;118.80;;;81.38;;
61407;SDS011;47274;43.054;25.146;2022-07-22T15:14:29;85.57;;;61.15;;
61407;SDS011;47274;43.054;25.146;2022-07-22T15:16:58;58.15;;;41.05;;
61407;SDS011;47274;43.054;25.146;2022-07-22T15:19:24;62.13;;;46.67;;
61407;SDS011;47274;43.054;25.146;2022-07-22T15:21:50;56.22;;;38.55;;
61407;SDS011;47274;43.054;25.146;2022-07-22T15:24:16;44.08;;;29.20;;
61407;SDS011;47274;43.054;25.146;2022-07-22T15:26:42;39.35;;;26.42;;
61407;SDS011;47274;43.054;25.146;2022-07-22T15:29:07;37.45;;;23.75;;
61407;SDS011;47274;43.054;25.146;2022-07-22T15:31:33;32.33;;;22.08;;
61407;SDS011;47274;43.054;25.146;2022-07-22T15:33:59;55.10;;;18.83;;